sensor_id;sensor_type;location;lat;lon;timestamp;temperature;humidity
70166;SHT30;57541;47.408;18.822;2024-02-26T00:00:20;9.64;99.99
70166;SHT30;57541;47.408;18.822;2024-02-26T00:00:52;9.64;99.99
70166;SHT30;57541;47.408;18.822;2024-02-26T00:01:24;9.68;99.99
70166;SHT30;57541;47.408;18.822;2024-02-26T00:01:56;9.65;99.99
70166;SHT30;57541;47.408;18.822;2024-02-26T00:02:27;9.62;99.99
70166;SHT30;57541;47.408;18.822;2024-02-26T00:03:00;9.61;99.99
70166;SHT30;57541;47.408;18.822;2024-02-26T00:03:31;9.59;99.99
70166;SHT30;57541;47.408;18.822;2024-02-26T00:04:07;9.61;99.99
70166;SHT30;57541;47.408;18.822;2024-02-26T00:04:39;9.65;99.99
70166;SHT30;57541;47.408;18.822;2024-02-26T00:05:10;9.70;99.99
70166;SHT30;57541;47.408;18.822;2024-02-26T00:05:42;9.68;99.99
70166;SHT30;57541;47.408;18.822;2024-02-26T00:06:14;9.68;99.99
70166;SHT30;57541;47.408;18.822;2024-02-26T00:06:46;9.65;99.99
70166;SHT30;57541;47.408;18.822;2024-02-26T00:07:18;9.64;99.99
70166;SHT30;57541;47.408;18.822;2024-02-26T00:07:50;9.74;99.99
70166;SHT30;57541;47.408;18.822;2024-02-26T00:08:22;9.70;99.99
70166;SHT30;57541;47.408;18.822;2024-02-26T00:08:54;9.65;99.99
70166;SHT30;57541;47.408;18.822;2024-02-26T00:09:26;9.62;99.99
70166;SHT30;57541;47.408;18.822;2024-02-26T00:09:57;9.67;99.99
70166;SHT30;57541;47.408;18.822;2024-02-26T00:10:29;9.61;99.99
70166;SHT30;57541;47.408;18.822;2024-02-26T00:11:01;9.58;99.99
70166;SHT30;57541;47.408;18.822;2024-02-26T00:11:33;9.61;99.99
70166;SHT30;57541;47.408;18.822;2024-02-26T00:12:05;9.61;99.99
70166;SHT30;57541;47.408;18.822;2024-02-26T00:12:37;9.64;99.99
70166;SHT30;57541;47.408;18.822;2024-02-26T00:13:10;9.68;99.99
70166;SHT30;57541;47.408;18.822;2024-02-26T00:13:42;9.70;99.99
70166;SHT30;57541;47.408;18.822;2024-02-26T00:14:14;9.68;99.99
70166;SHT30;57541;47.408;18.822;2024-02-26T00:14:46;9.65;99.99
70166;SHT30;57541;47.408;18.822;2024-02-26T00:15:18;9.65;99.99
70166;SHT30;57541;47.408;18.822;2024-02-26T00:15:50;9.67;99.99
70166;SHT30;57541;47.408;18.822;2024-02-26T00:16:22;9.67;99.99
70166;SHT30;57541;47.408;18.822;2024-02-26T00:16:54;9.64;99.99
70166;SHT30;57541;47.408;18.822;2024-02-26T00:17:26;9.67;99.99
70166;SHT30;57541;47.408;18.822;2024-02-26T00:17:57;9.67;99.99
70166;SHT30;57541;47.408;18.822;2024-02-26T00:18:30;9.68;99.99
70166;SHT30;57541;47.408;18.822;2024-02-26T00:19:02;9.64;99.99
70166;SHT30;57541;47.408;18.822;2024-02-26T00:19:35;9.65;99.99
70166;SHT30;57541;47.408;18.822;2024-02-26T00:20:07;9.65;99.99
70166;SHT30;57541;47.408;18.822;2024-02-26T00:20:42;9.62;99.99
70166;SHT30;57541;47.408;18.822;2024-02-26T00:21:15;9.62;99.99
70166;SHT30;57541;47.408;18.822;2024-02-26T00:21:47;9.64;99.99
70166;SHT30;57541;47.408;18.822;2024-02-26T00:22:19;9.61;99.99
70166;SHT30;57541;47.408;18.822;2024-02-26T00:22:50;9.57;99.99
70166;SHT30;57541;47.408;18.822;2024-02-26T00:23:22;9.55;99.99
70166;SHT30;57541;47.408;18.822;2024-02-26T00:23:55;9.58;99.99
70166;SHT30;57541;47.408;18.822;2024-02-26T00:24:27;9.58;99.99
70166;SHT30;57541;47.408;18.822;2024-02-26T00:24:59;9.57;99.99
70166;SHT30;57541;47.408;18.822;2024-02-26T00:25:31;9.55;99.99
70166;SHT30;57541;47.408;18.822;2024-02-26T00:26:02;9.55;99.99
70166;SHT30;57541;47.408;18.822;2024-02-26T00:26:35;9.58;99.99
70166;SHT30;57541;47.408;18.822;2024-02-26T00:27:07;9.59;99.99
70166;SHT30;57541;47.408;18.822;2024-02-26T00:27:39;9.61;99.99
70166;SHT30;57541;47.408;18.822;2024-02-26T00:28:13;9.58;99.99
70166;SHT30;57541;47.408;18.822;2024-02-26T00:28:45;9.57;99.99
70166;SHT30;57541;47.408;18.822;2024-02-26T00:29:17;9.58;99.99
70166;SHT30;57541;47.408;18.822;2024-02-26T00:29:49;9.65;99.99
70166;SHT30;57541;47.408;18.822;2024-02-26T00:30:20;9.68;99.99
70166;SHT30;57541;47.408;18.822;2024-02-26T00:30:52;9.65;99.99
70166;SHT30;57541;47.408;18.822;2024-02-26T00:31:27;9.67;99.99
70166;SHT30;57541;47.408;18.822;2024-02-26T00:31:59;9.65;99.99
70166;SHT30;57541;47.408;18.822;2024-02-26T00:32:31;9.65;99.99
70166;SHT30;57541;47.408;18.822;2024-02-26T00:33:02;9.70;99.99
70166;SHT30;57541;47.408;18.822;2024-02-26T00:33:34;9.67;99.99
70166;SHT30;57541;47.408;18.822;2024-02-26T00:34:07;9.64;99.99
70166;SHT30;57541;47.408;18.822;2024-02-26T00:34:39;9.62;99.99
70166;SHT30;57541;47.408;18.822;2024-02-26T00:35:10;9.67;99.99
70166;SHT30;57541;47.408;18.822;2024-02-26T00:35:43;9.64;99.99
70166;SHT30;57541;47.408;18.822;2024-02-26T00:36:14;9.65;99.99
70166;SHT30;57541;47.408;18.822;2024-02-26T00:36:46;9.67;99.99
70166;SHT30;57541;47.408;18.822;2024-02-26T00:37:18;9.61;99.99
70166;SHT30;57541;47.408;18.822;2024-02-26T00:37:50;9.59;99.99
70166;SHT30;57541;47.408;18.822;2024-02-26T00:38:22;9.64;99.99
70166;SHT30;57541;47.408;18.822;2024-02-26T00:38:53;9.65;99.99
70166;SHT30;57541;47.408;18.822;2024-02-26T00:39:25;9.57;99.99
70166;SHT30;57541;47.408;18.822;2024-02-26T00:39:57;9.54;99.99
70166;SHT30;57541;47.408;18.822;2024-02-26T00:40:29;9.58;99.99
70166;SHT30;57541;47.408;18.822;2024-02-26T00:41:00;9.58;99.99
70166;SHT30;57541;47.408;18.822;2024-02-26T00:41:32;9.52;99.99
70166;SHT30;57541;47.408;18.822;2024-02-26T00:42:04;9.52;99.99
70166;SHT30;57541;47.408;18.822;2024-02-26T00:42:36;9.55;99.99
70166;SHT30;57541;47.408;18.822;2024-02-26T00:43:08;9.57;99.99
70166;SHT30;57541;47.408;18.822;2024-02-26T00:43:40;9.55;99.99
70166;SHT30;57541;47.408;18.822;2024-02-26T00:44:14;9.55;99.99
70166;SHT30;57541;47.408;18.822;2024-02-26T00:44:45;9.57;99.99
70166;SHT30;57541;47.408;18.822;2024-02-26T00:45:17;9.61;99.99
70166;SHT30;57541;47.408;18.822;2024-02-26T00:45:49;9.58;99.99
70166;SHT30;57541;47.408;18.822;2024-02-26T00:46:21;9.58;99.99
70166;SHT30;57541;47.408;18.822;2024-02-26T00:46:53;9.54;99.99
70166;SHT30;57541;47.408;18.822;2024-02-26T00:47:25;9.62;99.99
70166;SHT30;57541;47.408;18.822;2024-02-26T00:47:56;9.61;99.99
70166;SHT30;57541;47.408;18.822;2024-02-26T00:48:28;9.57;99.99
70166;SHT30;57541;47.408;18.822;2024-02-26T00:49:00;9.57;99.99
70166;SHT30;57541;47.408;18.822;2024-02-26T00:49:33;9.58;99.99
70166;SHT30;57541;47.408;18.822;2024-02-26T00:50:05;9.59;99.99
70166;SHT30;57541;47.408;18.822;2024-02-26T00:50:38;9.58;99.99
70166;SHT30;57541;47.408;18.822;2024-02-26T00:51:10;9.54;99.99
70166;SHT30;57541;47.408;18.822;2024-02-26T00:51:42;9.58;99.99
70166;SHT30;57541;47.408;18.822;2024-02-26T00:52:14;9.65;99.99
70166;SHT30;57541;47.408;18.822;2024-02-26T00:52:45;9.67;99.99
70166;SHT30;57541;47.408;18.822;2024-02-26T00:53:18;9.68;99.99
70166;SHT30;57541;47.408;18.822;2024-02-26T00:53:50;9.67;99.99
70166;SHT30;57541;47.408;18.822;2024-02-26T00:54:22;9.68;99.99
70166;SHT30;57541;47.408;18.822;2024-02-26T00:54:53;9.68;99.99
70166;SHT30;57541;47.408;18.822;2024-02-26T00:55:25;9.70;99.99
70166;SHT30;57541;47.408;18.822;2024-02-26T00:55:57;9.67;99.99
70166;SHT30;57541;47.408;18.822;2024-02-26T00:56:33;9.70;99.99
70166;SHT30;57541;47.408;18.822;2024-02-26T00:57:04;9.68;99.99
70166;SHT30;57541;47.408;18.822;2024-02-26T00:57:36;9.64;99.99
70166;SHT30;57541;47.408;18.822;2024-02-26T00:58:09;9.68;99.99
70166;SHT30;57541;47.408;18.822;2024-02-26T00:58:41;9.65;99.99
70166;SHT30;57541;47.408;18.822;2024-02-26T00:59:12;9.67;99.99
70166;SHT30;57541;47.408;18.822;2024-02-26T00:59:44;9.68;99.99
70166;SHT30;57541;47.408;18.822;2024-02-26T01:00:16;9.65;99.99
70166;SHT30;57541;47.408;18.822;2024-02-26T01:00:48;9.64;99.99
70166;SHT30;57541;47.408;18.822;2024-02-26T01:01:20;9.61;99.99
70166;SHT30;57541;47.408;18.822;2024-02-26T01:01:52;9.61;99.99
70166;SHT30;57541;47.408;18.822;2024-02-26T01:02:24;9.65;99.99
70166;SHT30;57541;47.408;18.822;2024-02-26T01:02:55;9.58;99.99
70166;SHT30;57541;47.408;18.822;2024-02-26T01:03:28;9.58;99.99
70166;SHT30;57541;47.408;18.822;2024-02-26T01:04:00;9.57;99.99
70166;SHT30;57541;47.408;18.822;2024-02-26T01:04:32;9.61;99.99
70166;SHT30;57541;47.408;18.822;2024-02-26T01:05:06;9.54;99.99
70166;SHT30;57541;47.408;18.822;2024-02-26T01:05:38;9.51;99.99
70166;SHT30;57541;47.408;18.822;2024-02-26T01:06:09;9.52;99.99
70166;SHT30;57541;47.408;18.822;2024-02-26T01:06:41;9.51;99.99
70166;SHT30;57541;47.408;18.822;2024-02-26T01:07:13;9.51;99.99
70166;SHT30;57541;47.408;18.822;2024-02-26T01:07:45;9.48;99.99
70166;SHT30;57541;47.408;18.822;2024-02-26T01:08:17;9.50;99.99
70166;SHT30;57541;47.408;18.822;2024-02-26T01:08:49;9.44;99.99
70166;SHT30;57541;47.408;18.822;2024-02-26T01:09:22;9.48;99.99
70166;SHT30;57541;47.408;18.822;2024-02-26T01:09:53;9.45;99.99
70166;SHT30;57541;47.408;18.822;2024-02-26T01:10:25;9.51;99.99
70166;SHT30;57541;47.408;18.822;2024-02-26T01:10:57;9.52;99.99
70166;SHT30;57541;47.408;18.822;2024-02-26T01:11:29;9.50;99.99
70166;SHT30;57541;47.408;18.822;2024-02-26T01:12:01;9.51;99.99
70166;SHT30;57541;47.408;18.822;2024-02-26T01:12:34;9.50;99.99
70166;SHT30;57541;47.408;18.822;2024-02-26T01:13:06;9.52;99.99
70166;SHT30;57541;47.408;18.822;2024-02-26T01:13:39;9.54;99.99
70166;SHT30;57541;47.408;18.822;2024-02-26T01:14:11;9.54;99.99
70166;SHT30;57541;47.408;18.822;2024-02-26T01:14:43;9.52;99.99
70166;SHT30;57541;47.408;18.822;2024-02-26T01:15:14;9.51;99.99
70166;SHT30;57541;47.408;18.822;2024-02-26T01:15:47;9.50;99.99
70166;SHT30;57541;47.408;18.822;2024-02-26T01:16:19;9.50;99.99
70166;SHT30;57541;47.408;18.822;2024-02-26T01:16:51;9.48;99.99
70166;SHT30;57541;47.408;18.822;2024-02-26T01:17:22;9.47;99.99
70166;SHT30;57541;47.408;18.822;2024-02-26T01:17:54;9.45;99.99
70166;SHT30;57541;47.408;18.822;2024-02-26T01:18:26;9.47;99.99
70166;SHT30;57541;47.408;18.822;2024-02-26T01:18:58;9.44;99.99
70166;SHT30;57541;47.408;18.822;2024-02-26T01:19:30;9.45;99.99
70166;SHT30;57541;47.408;18.822;2024-02-26T01:20:03;9.45;99.99
70166;SHT30;57541;47.408;18.822;2024-02-26T01:20:35;9.45;99.99
70166;SHT30;57541;47.408;18.822;2024-02-26T01:21:08;9.44;99.99
70166;SHT30;57541;47.408;18.822;2024-02-26T01:21:40;9.43;99.99
70166;SHT30;57541;47.408;18.822;2024-02-26T01:22:12;9.44;99.99
70166;SHT30;57541;47.408;18.822;2024-02-26T01:22:44;9.44;99.99
70166;SHT30;57541;47.408;18.822;2024-02-26T01:23:16;9.40;99.99
70166;SHT30;57541;47.408;18.822;2024-02-26T01:23:48;9.44;99.99
70166;SHT30;57541;47.408;18.822;2024-02-26T01:24:19;9.47;99.99
70166;SHT30;57541;47.408;18.822;2024-02-26T01:24:51;9.47;99.99
70166;SHT30;57541;47.408;18.822;2024-02-26T01:25:23;9.45;99.99
70166;SHT30;57541;47.408;18.822;2024-02-26T01:25:55;9.51;99.99
70166;SHT30;57541;47.408;18.822;2024-02-26T01:26:27;9.50;99.99
70166;SHT30;57541;47.408;18.822;2024-02-26T01:26:58;9.48;99.99
70166;SHT30;57541;47.408;18.822;2024-02-26T01:27:30;9.44;99.99
70166;SHT30;57541;47.408;18.822;2024-02-26T01:28:02;9.51;99.99
70166;SHT30;57541;47.408;18.822;2024-02-26T01:28:34;9.47;99.99
70166;SHT30;57541;47.408;18.822;2024-02-26T01:29:06;9.48;99.99
70166;SHT30;57541;47.408;18.822;2024-02-26T01:29:38;9.44;99.99
70166;SHT30;57541;47.408;18.822;2024-02-26T01:30:11;9.47;99.99
70166;SHT30;57541;47.408;18.822;2024-02-26T01:30:43;9.48;99.99
70166;SHT30;57541;47.408;18.822;2024-02-26T01:31:15;9.40;99.99
70166;SHT30;57541;47.408;18.822;2024-02-26T01:31:46;9.47;99.99
70166;SHT30;57541;47.408;18.822;2024-02-26T01:32:18;9.43;99.99
70166;SHT30;57541;47.408;18.822;2024-02-26T01:32:51;9.43;99.99
70166;SHT30;57541;47.408;18.822;2024-02-26T01:33:23;9.48;99.99
70166;SHT30;57541;47.408;18.822;2024-02-26T01:33:55;9.44;99.99
70166;SHT30;57541;47.408;18.822;2024-02-26T01:34:27;9.41;99.99
70166;SHT30;57541;47.408;18.822;2024-02-26T01:34:59;9.41;99.99
70166;SHT30;57541;47.408;18.822;2024-02-26T01:35:31;9.41;99.99
70166;SHT30;57541;47.408;18.822;2024-02-26T01:36:03;9.43;99.99
70166;SHT30;57541;47.408;18.822;2024-02-26T01:36:35;9.45;99.99
70166;SHT30;57541;47.408;18.822;2024-02-26T01:37:07;9.45;99.99
70166;SHT30;57541;47.408;18.822;2024-02-26T01:37:39;9.48;99.99
70166;SHT30;57541;47.408;18.822;2024-02-26T01:38:11;9.47;99.99
70166;SHT30;57541;47.408;18.822;2024-02-26T01:38:43;9.48;99.99
70166;SHT30;57541;47.408;18.822;2024-02-26T01:39:15;9.50;99.99
70166;SHT30;57541;47.408;18.822;2024-02-26T01:39:47;9.43;99.99
70166;SHT30;57541;47.408;18.822;2024-02-26T01:40:19;9.40;99.99
70166;SHT30;57541;47.408;18.822;2024-02-26T01:40:51;9.44;99.99
70166;SHT30;57541;47.408;18.822;2024-02-26T01:41:23;9.38;99.99
70166;SHT30;57541;47.408;18.822;2024-02-26T01:41:55;9.40;99.99
70166;SHT30;57541;47.408;18.822;2024-02-26T01:42:27;9.41;99.99
70166;SHT30;57541;47.408;18.822;2024-02-26T01:42:59;9.41;99.99
70166;SHT30;57541;47.408;18.822;2024-02-26T01:43:32;9.45;99.99
70166;SHT30;57541;47.408;18.822;2024-02-26T01:44:04;9.47;99.99
70166;SHT30;57541;47.408;18.822;2024-02-26T01:44:36;9.52;99.99
70166;SHT30;57541;47.408;18.822;2024-02-26T01:45:15;9.55;99.99
70166;SHT30;57541;47.408;18.822;2024-02-26T01:45:57;9.50;99.99
70166;SHT30;57541;47.408;18.822;2024-02-26T01:46:29;9.55;99.99
70166;SHT30;57541;47.408;18.822;2024-02-26T01:47:02;9.58;99.99
70166;SHT30;57541;47.408;18.822;2024-02-26T01:47:34;9.59;99.99
70166;SHT30;57541;47.408;18.822;2024-02-26T01:48:06;9.54;99.99
70166;SHT30;57541;47.408;18.822;2024-02-26T01:48:41;9.45;99.99
70166;SHT30;57541;47.408;18.822;2024-02-26T01:49:14;9.47;99.99
70166;SHT30;57541;47.408;18.822;2024-02-26T01:49:47;9.50;99.99
70166;SHT30;57541;47.408;18.822;2024-02-26T01:50:19;9.45;99.99
70166;SHT30;57541;47.408;18.822;2024-02-26T01:50:51;9.48;99.99
70166;SHT30;57541;47.408;18.822;2024-02-26T01:51:23;9.50;99.99
70166;SHT30;57541;47.408;18.822;2024-02-26T01:51:56;9.47;99.99
70166;SHT30;57541;47.408;18.822;2024-02-26T01:52:28;9.51;99.99
70166;SHT30;57541;47.408;18.822;2024-02-26T01:53:00;9.51;99.99
70166;SHT30;57541;47.408;18.822;2024-02-26T01:53:33;9.54;99.99
70166;SHT30;57541;47.408;18.822;2024-02-26T01:54:06;9.54;99.99
70166;SHT30;57541;47.408;18.822;2024-02-26T01:54:40;9.55;99.99
70166;SHT30;57541;47.408;18.822;2024-02-26T01:55:13;9.52;99.99
70166;SHT30;57541;47.408;18.822;2024-02-26T01:55:46;9.58;99.99
70166;SHT30;57541;47.408;18.822;2024-02-26T01:56:18;9.51;99.99
70166;SHT30;57541;47.408;18.822;2024-02-26T01:56:51;9.48;99.99
70166;SHT30;57541;47.408;18.822;2024-02-26T01:57:23;9.50;99.99
70166;SHT30;57541;47.408;18.822;2024-02-26T01:57:55;9.47;99.99
70166;SHT30;57541;47.408;18.822;2024-02-26T01:58:27;9.50;99.99
70166;SHT30;57541;47.408;18.822;2024-02-26T01:59:00;9.50;99.99
70166;SHT30;57541;47.408;18.822;2024-02-26T01:59:33;9.50;99.99
70166;SHT30;57541;47.408;18.822;2024-02-26T02:00:06;9.48;99.99
70166;SHT30;57541;47.408;18.822;2024-02-26T02:00:39;9.47;99.99
70166;SHT30;57541;47.408;18.822;2024-02-26T02:01:12;9.48;99.99
70166;SHT30;57541;47.408;18.822;2024-02-26T02:01:48;9.44;99.99
70166;SHT30;57541;47.408;18.822;2024-02-26T02:02:25;9.45;99.99
70166;SHT30;57541;47.408;18.822;2024-02-26T02:02:57;9.47;99.99
70166;SHT30;57541;47.408;18.822;2024-02-26T02:03:29;9.45;99.99
70166;SHT30;57541;47.408;18.822;2024-02-26T02:04:02;9.51;99.99
70166;SHT30;57541;47.408;18.822;2024-02-26T02:04:34;9.45;99.99
70166;SHT30;57541;47.408;18.822;2024-02-26T02:05:07;9.43;99.99
70166;SHT30;57541;47.408;18.822;2024-02-26T02:05:40;9.45;99.99
70166;SHT30;57541;47.408;18.822;2024-02-26T02:06:14;9.50;99.99
70166;SHT30;57541;47.408;18.822;2024-02-26T02:06:47;9.52;99.99
70166;SHT30;57541;47.408;18.822;2024-02-26T02:07:21;9.52;99.99
70166;SHT30;57541;47.408;18.822;2024-02-26T02:07:54;9.52;99.99
70166;SHT30;57541;47.408;18.822;2024-02-26T02:08:27;9.50;99.99
70166;SHT30;57541;47.408;18.822;2024-02-26T02:08:59;9.48;99.99
70166;SHT30;57541;47.408;18.822;2024-02-26T02:09:32;9.54;99.99
70166;SHT30;57541;47.408;18.822;2024-02-26T02:10:05;9.52;99.99
70166;SHT30;57541;47.408;18.822;2024-02-26T02:10:38;9.51;99.99
70166;SHT30;57541;47.408;18.822;2024-02-26T02:11:10;9.48;99.99
70166;SHT30;57541;47.408;18.822;2024-02-26T02:11:43;9.45;99.99
70166;SHT30;57541;47.408;18.822;2024-02-26T02:12:15;9.43;99.99
70166;SHT30;57541;47.408;18.822;2024-02-26T02:12:47;9.50;99.99
70166;SHT30;57541;47.408;18.822;2024-02-26T02:13:19;9.52;99.99
70166;SHT30;57541;47.408;18.822;2024-02-26T02:13:51;9.50;99.99
70166;SHT30;57541;47.408;18.822;2024-02-26T02:14:24;9.51;99.99
70166;SHT30;57541;47.408;18.822;2024-02-26T02:14:56;9.50;99.99
70166;SHT30;57541;47.408;18.822;2024-02-26T02:15:28;9.51;99.99
70166;SHT30;57541;47.408;18.822;2024-02-26T02:16:00;9.52;99.99
70166;SHT30;57541;47.408;18.822;2024-02-26T02:16:32;9.54;99.99
70166;SHT30;57541;47.408;18.822;2024-02-26T02:17:03;9.52;99.99
70166;SHT30;57541;47.408;18.822;2024-02-26T02:17:35;9.52;99.99
70166;SHT30;57541;47.408;18.822;2024-02-26T02:18:07;9.58;99.99
70166;SHT30;57541;47.408;18.822;2024-02-26T02:18:39;9.58;99.99
70166;SHT30;57541;47.408;18.822;2024-02-26T02:19:11;9.54;99.99
70166;SHT30;57541;47.408;18.822;2024-02-26T02:19:43;9.54;99.99
70166;SHT30;57541;47.408;18.822;2024-02-26T02:20:16;9.54;99.99
70166;SHT30;57541;47.408;18.822;2024-02-26T02:20:49;9.50;99.99
70166;SHT30;57541;47.408;18.822;2024-02-26T02:21:21;9.45;99.99
70166;SHT30;57541;47.408;18.822;2024-02-26T02:21:53;9.51;99.99
70166;SHT30;57541;47.408;18.822;2024-02-26T02:22:25;9.52;99.99
70166;SHT30;57541;47.408;18.822;2024-02-26T02:22:56;9.57;99.99
70166;SHT30;57541;47.408;18.822;2024-02-26T02:23:28;9.52;99.99
70166;SHT30;57541;47.408;18.822;2024-02-26T02:24:00;9.55;99.99
70166;SHT30;57541;47.408;18.822;2024-02-26T02:24:32;9.52;99.99
70166;SHT30;57541;47.408;18.822;2024-02-26T02:25:04;9.50;99.99
70166;SHT30;57541;47.408;18.822;2024-02-26T02:25:36;9.44;99.99
70166;SHT30;57541;47.408;18.822;2024-02-26T02:26:08;9.41;99.99
70166;SHT30;57541;47.408;18.822;2024-02-26T02:26:40;9.41;99.99
70166;SHT30;57541;47.408;18.822;2024-02-26T02:27:12;9.38;99.99
70166;SHT30;57541;47.408;18.822;2024-02-26T02:27:44;9.43;99.99
70166;SHT30;57541;47.408;18.822;2024-02-26T02:28:15;9.35;99.99
70166;SHT30;57541;47.408;18.822;2024-02-26T02:28:48;9.41;99.99
70166;SHT30;57541;47.408;18.822;2024-02-26T02:29:20;9.44;99.99
70166;SHT30;57541;47.408;18.822;2024-02-26T02:29:52;9.48;99.99
70166;SHT30;57541;47.408;18.822;2024-02-26T02:30:27;9.45;99.99
70166;SHT30;57541;47.408;18.822;2024-02-26T02:31:00;9.44;99.99
70166;SHT30;57541;47.408;18.822;2024-02-26T02:31:32;9.47;99.99
70166;SHT30;57541;47.408;18.822;2024-02-26T02:32:04;9.43;99.99
70166;SHT30;57541;47.408;18.822;2024-02-26T02:32:40;9.40;99.99
70166;SHT30;57541;47.408;18.822;2024-02-26T02:33:14;9.48;99.99
70166;SHT30;57541;47.408;18.822;2024-02-26T02:33:47;9.45;99.99
70166;SHT30;57541;47.408;18.822;2024-02-26T02:34:19;9.51;99.99
70166;SHT30;57541;47.408;18.822;2024-02-26T02:34:51;9.55;99.99
70166;SHT30;57541;47.408;18.822;2024-02-26T02:35:23;9.55;99.99
70166;SHT30;57541;47.408;18.822;2024-02-26T02:35:54;9.59;99.99
70166;SHT30;57541;47.408;18.822;2024-02-26T02:36:27;9.55;99.99
70166;SHT30;57541;47.408;18.822;2024-02-26T02:36:59;9.52;99.99
70166;SHT30;57541;47.408;18.822;2024-02-26T02:37:30;9.51;99.99
70166;SHT30;57541;47.408;18.822;2024-02-26T02:38:02;9.54;99.99
70166;SHT30;57541;47.408;18.822;2024-02-26T02:38:34;9.50;99.99
70166;SHT30;57541;47.408;18.822;2024-02-26T02:39:06;9.52;99.99
70166;SHT30;57541;47.408;18.822;2024-02-26T02:39:38;9.51;99.99
70166;SHT30;57541;47.408;18.822;2024-02-26T02:40:09;9.48;99.99
70166;SHT30;57541;47.408;18.822;2024-02-26T02:40:41;9.37;99.99
70166;SHT30;57541;47.408;18.822;2024-02-26T02:41:13;9.47;99.99
70166;SHT30;57541;47.408;18.822;2024-02-26T02:41:45;9.50;99.99
70166;SHT30;57541;47.408;18.822;2024-02-26T02:42:17;9.57;99.99
70166;SHT30;57541;47.408;18.822;2024-02-26T02:42:48;9.55;99.99
70166;SHT30;57541;47.408;18.822;2024-02-26T02:43:20;9.57;99.99
70166;SHT30;57541;47.408;18.822;2024-02-26T02:43:52;9.54;99.99
70166;SHT30;57541;47.408;18.822;2024-02-26T02:44:24;9.58;99.99
70166;SHT30;57541;47.408;18.822;2024-02-26T02:44:56;9.62;99.99
70166;SHT30;57541;47.408;18.822;2024-02-26T02:45:30;9.65;99.99
70166;SHT30;57541;47.408;18.822;2024-02-26T02:46:02;9.55;99.99
70166;SHT30;57541;47.408;18.822;2024-02-26T02:46:35;9.57;99.99
70166;SHT30;57541;47.408;18.822;2024-02-26T02:47:07;9.59;99.99
70166;SHT30;57541;47.408;18.822;2024-02-26T02:47:38;9.61;99.99
70166;SHT30;57541;47.408;18.822;2024-02-26T02:48:11;9.64;99.99
70166;SHT30;57541;47.408;18.822;2024-02-26T02:48:43;9.61;99.99
70166;SHT30;57541;47.408;18.822;2024-02-26T02:49:15;9.55;99.99
70166;SHT30;57541;47.408;18.822;2024-02-26T02:49:48;9.57;99.99
70166;SHT30;57541;47.408;18.822;2024-02-26T02:50:20;9.54;99.99
70166;SHT30;57541;47.408;18.822;2024-02-26T02:50:52;9.54;99.99
70166;SHT30;57541;47.408;18.822;2024-02-26T02:51:23;9.48;99.99
70166;SHT30;57541;47.408;18.822;2024-02-26T02:51:55;9.52;99.99
70166;SHT30;57541;47.408;18.822;2024-02-26T02:52:29;9.51;99.99
70166;SHT30;57541;47.408;18.822;2024-02-26T02:53:01;9.57;99.99
70166;SHT30;57541;47.408;18.822;2024-02-26T02:53:33;9.43;99.99
70166;SHT30;57541;47.408;18.822;2024-02-26T02:54:05;9.47;99.99
70166;SHT30;57541;47.408;18.822;2024-02-26T02:54:37;9.40;99.99
70166;SHT30;57541;47.408;18.822;2024-02-26T02:55:12;9.45;99.99
70166;SHT30;57541;47.408;18.822;2024-02-26T02:55:44;9.40;99.99
70166;SHT30;57541;47.408;18.822;2024-02-26T02:56:15;9.38;99.99
70166;SHT30;57541;47.408;18.822;2024-02-26T02:56:47;9.54;99.99
70166;SHT30;57541;47.408;18.822;2024-02-26T02:57:19;9.50;99.99
70166;SHT30;57541;47.408;18.822;2024-02-26T02:57:51;9.51;99.99
70166;SHT30;57541;47.408;18.822;2024-02-26T02:58:23;9.48;99.99
70166;SHT30;57541;47.408;18.822;2024-02-26T02:58:55;9.54;99.99
70166;SHT30;57541;47.408;18.822;2024-02-26T02:59:27;9.55;99.99
70166;SHT30;57541;47.408;18.822;2024-02-26T02:59:58;9.55;99.99
70166;SHT30;57541;47.408;18.822;2024-02-26T03:00:30;9.54;99.99
70166;SHT30;57541;47.408;18.822;2024-02-26T03:01:02;9.51;99.99
70166;SHT30;57541;47.408;18.822;2024-02-26T03:01:34;9.58;99.99
70166;SHT30;57541;47.408;18.822;2024-02-26T03:02:06;9.55;99.99
70166;SHT30;57541;47.408;18.822;2024-02-26T03:02:38;9.54;99.99
70166;SHT30;57541;47.408;18.822;2024-02-26T03:03:10;9.55;99.99
70166;SHT30;57541;47.408;18.822;2024-02-26T03:03:41;9.58;99.99
70166;SHT30;57541;47.408;18.822;2024-02-26T03:04:13;9.54;99.99
70166;SHT30;57541;47.408;18.822;2024-02-26T03:04:45;9.54;99.99
70166;SHT30;57541;47.408;18.822;2024-02-26T03:05:17;9.57;99.99
70166;SHT30;57541;47.408;18.822;2024-02-26T03:05:49;9.55;99.99
70166;SHT30;57541;47.408;18.822;2024-02-26T03:06:21;9.54;99.99
70166;SHT30;57541;47.408;18.822;2024-02-26T03:06:53;9.52;99.99
70166;SHT30;57541;47.408;18.822;2024-02-26T03:07:25;9.57;99.99
70166;SHT30;57541;47.408;18.822;2024-02-26T03:07:57;9.52;99.99
70166;SHT30;57541;47.408;18.822;2024-02-26T03:08:29;9.47;99.99
70166;SHT30;57541;47.408;18.822;2024-02-26T03:09:01;9.48;99.99
70166;SHT30;57541;47.408;18.822;2024-02-26T03:09:32;9.50;99.99
70166;SHT30;57541;47.408;18.822;2024-02-26T03:10:04;9.51;99.99
70166;SHT30;57541;47.408;18.822;2024-02-26T03:10:36;9.50;99.99
70166;SHT30;57541;47.408;18.822;2024-02-26T03:11:13;9.50;99.99
70166;SHT30;57541;47.408;18.822;2024-02-26T03:11:45;9.51;99.99
70166;SHT30;57541;47.408;18.822;2024-02-26T03:12:17;9.52;99.99
70166;SHT30;57541;47.408;18.822;2024-02-26T03:12:50;9.51;99.99
70166;SHT30;57541;47.408;18.822;2024-02-26T03:13:21;9.50;99.99
70166;SHT30;57541;47.408;18.822;2024-02-26T03:13:53;9.47;99.99
70166;SHT30;57541;47.408;18.822;2024-02-26T03:14:25;9.48;99.99
70166;SHT30;57541;47.408;18.822;2024-02-26T03:14:57;9.47;99.99
70166;SHT30;57541;47.408;18.822;2024-02-26T03:15:29;9.45;99.99
70166;SHT30;57541;47.408;18.822;2024-02-26T03:16:05;9.47;99.99
70166;SHT30;57541;47.408;18.822;2024-02-26T03:16:37;9.44;99.99
70166;SHT30;57541;47.408;18.822;2024-02-26T03:17:09;9.40;99.99
70166;SHT30;57541;47.408;18.822;2024-02-26T03:17:41;9.41;99.99
70166;SHT30;57541;47.408;18.822;2024-02-26T03:18:13;9.41;99.99
70166;SHT30;57541;47.408;18.822;2024-02-26T03:18:45;9.40;99.99
70166;SHT30;57541;47.408;18.822;2024-02-26T03:19:17;9.40;99.99
70166;SHT30;57541;47.408;18.822;2024-02-26T03:19:49;9.35;99.99
70166;SHT30;57541;47.408;18.822;2024-02-26T03:20:25;9.40;99.99
70166;SHT30;57541;47.408;18.822;2024-02-26T03:20:56;9.34;99.99
70166;SHT30;57541;47.408;18.822;2024-02-26T03:21:28;9.34;99.99
70166;SHT30;57541;47.408;18.822;2024-02-26T03:22:00;9.31;99.99
70166;SHT30;57541;47.408;18.822;2024-02-26T03:22:32;9.34;99.99
70166;SHT30;57541;47.408;18.822;2024-02-26T03:23:04;9.33;99.99
70166;SHT30;57541;47.408;18.822;2024-02-26T03:23:36;9.27;99.99